Time;durP1;ratioP1;P1;durP2;ratioP2;P2;SDS_P1;SDS_P2;PMS_P1;PMS_P2;Temp;Humidity;BMP_temperature;BMP_pressure;BME280_temperature;BME280_humidity;BME280_pressure;Samples;Min_cycle;Max_cycle;Signal;HPM_P1;HPM_P2
2021/08/01 00:01:22;;;;;;;11.75;5.25;;;;;;;16.78;84.37;98346.75;5050871;28;20519;-81
2021/08/01 00:03:51;;;;;;;8.23;4.00;;;;;;;16.69;84.99;98337.22;5038595;28;20053;-81
2021/08/01 00:06:18;;;;;;;7.68;3.60;;;;;;;16.71;85.87;98334.25;5048357;28;20052;-82
2021/08/01 00:08:47;;;;;;;5.28;3.60;;;;;;;16.77;86.07;98349.72;5040851;28;20045;-81
2021/08/01 00:11:14;;;;;;;9.23;3.67;;;;;;;16.55;86.37;98333.13;5046790;28;20155;-81
2021/08/01 00:13:40;;;;;;;5.18;3.67;;;;;;;16.54;87.45;98346.00;5049603;28;20123;-81
2021/08/01 00:16:07;;;;;;;7.93;3.83;;;;;;;16.67;86.51;98349.56;5045581;28;20049;-81
2021/08/01 00:18:35;;;;;;;4.55;3.00;;;;;;;16.62;87.72;98340.13;5040297;28;20385;-81
2021/08/01 00:21:02;;;;;;;6.57;3.70;;;;;;;16.53;88.26;98338.88;5044466;28;20477;-81
2021/08/01 00:23:28;;;;;;;14.25;4.60;;;;;;;16.38;88.89;98344.03;5044490;28;20081;-81
2021/08/01 00:25:57;;;;;;;6.72;3.90;;;;;;;16.33;89.20;98335.69;5035794;28;20037;-80
2021/08/01 00:28:24;;;;;;;7.22;3.75;;;;;;;16.58;87.64;98352.66;5045582;28;20141;-80
2021/08/01 00:30:50;;;;;;;8.65;4.07;;;;;;;16.59;87.62;98346.13;5036694;28;20048;-80
2021/08/01 00:33:17;;;;;;;9.00;4.15;;;;;;;16.60;88.06;98344.19;5050989;28;20052;-80
2021/08/01 00:35:44;;;;;;;7.95;4.18;;;;;;;16.53;88.09;98341.59;5046540;28;20076;-80
2021/08/01 00:38:11;;;;;;;7.88;3.85;;;;;;;16.38;88.05;98325.66;5041776;28;20076;-80
2021/08/01 00:40:38;;;;;;;6.07;4.10;;;;;;;16.45;88.63;98337.34;5040579;28;20049;-79
2021/08/01 00:43:06;;;;;;;6.57;3.67;;;;;;;16.34;89.71;98332.72;5049694;28;20500;-79
2021/08/01 00:45:35;;;;;;;5.75;3.97;;;;;;;16.32;89.73;98332.13;5052010;28;20044;-79
2021/08/01 00:48:02;;;;;;;9.93;4.13;;;;;;;16.09;92.21;98333.00;5050837;28;20057;-79
2021/08/01 00:50:29;;;;;;;11.25;4.30;;;;;;;16.23;91.84;98325.38;5034034;28;20053;-79
2021/08/01 00:53:01;;;;;;;10.10;4.28;;;;;;;16.23;90.20;98320.69;5042904;28;20606;-78
2021/08/01 00:55:27;;;;;;;14.82;5.70;;;;;;;16.27;89.94;98329.25;5037843;28;20297;-78
2021/08/01 00:57:54;;;;;;;10.63;5.80;;;;;;;16.12;91.73;98326.22;5047877;28;20481;-78
2021/08/01 01:00:38;;;;;;;11.32;5.70;;;;;;;16.06;92.80;98328.84;5043046;28;20041;-78
2021/08/01 01:03:15;;;;;;;9.68;5.72;;;;;;;15.97;93.83;98310.25;5040932;28;20041;-78
2021/08/01 01:05:47;;;;;;;14.15;5.93;;;;;;;16.16;91.50;98330.16;5039081;28;20045;-78
2021/08/01 01:08:22;;;;;;;8.15;4.38;;;;;;;16.16;91.64;98313.69;5034983;28;20060;-78
2021/08/01 01:10:55;;;;;;;7.60;4.20;;;;;;;16.12;91.08;98307.84;5052833;28;20040;-78
2021/08/01 01:13:26;;;;;;;6.60;4.30;;;;;;;16.12;91.22;98332.50;5034565;28;20449;-78
2021/08/01 01:15:56;;;;;;;8.50;4.88;;;;;;;16.14;92.09;98324.91;5042363;28;20041;-79
2021/08/01 01:18:27;;;;;;;10.77;3.78;;;;;;;16.19;91.49;98324.16;5047112;28;20108;-78
2021/08/01 01:21:24;;;;;;;9.10;4.07;;;;;;;16.23;91.79;98330.84;5041058;28;20044;-78
2021/08/01 01:23:57;;;;;;;8.82;4.40;;;;;;;16.17;90.84;98327.16;5030450;28;20046;-78
2021/08/01 01:26:32;;;;;;;8.45;4.10;;;;;;;16.05;92.70;98329.91;5044532;28;20056;-78
2021/08/01 01:29:12;;;;;;;8.90;4.13;;;;;;;15.93;92.76;98310.75;5042811;28;20456;-78
2021/08/01 01:31:48;;;;;;;9.07;4.15;;;;;;;15.97;93.56;98337.66;5038370;28;20050;-78
2021/08/01 01:34:23;;;;;;;7.35;3.80;;;;;;;15.98;93.34;98334.69;5035663;28;20477;-78
2021/08/01 01:36:54;;;;;;;6.22;3.83;;;;;;;16.03;92.38;98336.72;5034582;28;20057;-78
2021/08/01 01:39:22;;;;;;;8.27;4.30;;;;;;;16.01;91.67;98319.69;5044591;28;20045;-78
2021/08/01 01:41:50;;;;;;;14.65;4.68;;;;;;;16.01;92.17;98327.91;5042844;28;20099;-78
2021/08/01 01:44:18;;;;;;;6.68;4.22;;;;;;;16.04;90.90;98321.94;5044335;28;20533;-78
2021/08/01 01:46:46;;;;;;;8.55;4.05;;;;;;;16.07;91.25;98327.75;5040960;28;20041;-79
2021/08/01 01:49:14;;;;;;;6.38;3.78;;;;;;;16.04;92.12;98332.91;5042549;28;20448;-78
2021/08/01 01:51:41;;;;;;;13.13;4.50;;;;;;;16.00;92.47;98335.28;5050871;28;20460;-78
2021/08/01 01:54:11;;;;;;;6.45;4.40;;;;;;;15.96;92.33;98336.84;5034085;28;20497;-79
2021/08/01 01:56:40;;;;;;;10.23;4.63;;;;;;;15.78;92.77;98328.75;5035768;28;20572;-79
2021/08/01 01:59:08;;;;;;;7.45;4.72;;;;;;;15.71;94.24;98318.72;5033000;28;20053;-79
2021/08/01 02:01:35;;;;;;;10.15;4.07;;;;;;;15.84;93.64;98325.91;5040370;28;20462;-79
2021/08/01 02:04:02;;;;;;;9.60;4.45;;;;;;;15.79;93.43;98320.28;5052188;28;20144;-78
2021/08/01 02:06:29;;;;;;;5.43;4.07;;;;;;;15.85;93.02;98323.97;5037868;28;20116;-79
2021/08/01 02:09:04;;;;;;;6.97;4.47;;;;;;;15.69;94.24;98323.59;5041053;28;20041;-79
2021/08/01 02:11:37;;;;;;;9.23;4.68;;;;;;;15.67;93.66;98314.81;5036567;28;20049;-79
2021/08/01 02:14:10;;;;;;;9.73;4.60;;;;;;;15.52;95.27;98303.47;5034066;28;21249;-79
2021/08/01 02:16:42;;;;;;;6.20;4.32;;;;;;;15.54;93.94;98304.06;5045461;28;20069;-79
2021/08/01 02:19:10;;;;;;;11.02;4.80;;;;;;;15.55;94.12;98313.94;5039341;28;20048;-79
2021/08/01 02:21:40;;;;;;;14.15;4.95;;;;;;;15.56;94.61;98313.69;5039118;28;20041;-78
2021/08/01 02:24:09;;;;;;;8.93;4.78;;;;;;;15.55;95.74;98312.06;5040234;28;20045;-79
2021/08/01 02:26:39;;;;;;;13.25;5.85;;;;;;;15.61;95.37;98313.00;5045063;28;20404;-78
2021/08/01 02:29:07;;;;;;;7.75;4.63;;;;;;;15.62;96.33;98311.09;5041584;28;20091;-78
2021/08/01 02:31:35;;;;;;;12.90;5.30;;;;;;;15.54;95.79;98298.59;5042013;28;20045;-78
2021/08/01 02:34:02;;;;;;;11.68;4.78;;;;;;;15.55;97.00;98300.25;5050954;28;20057;-79
2021/08/01 02:36:29;;;;;;;7.47;5.00;;;;;;;15.61;95.63;98313.00;5046298;28;20048;-78
2021/08/01 02:38:58;;;;;;;12.65;5.63;;;;;;;15.66;95.12;98310.38;5052036;28;20427;-78
2021/08/01 02:41:30;;;;;;;11.15;5.65;;;;;;;15.59;95.42;98295.97;5047377;28;20508;-78
2021/08/01 02:43:59;;;;;;;8.98;5.65;;;;;;;15.51;96.44;98294.41;5034620;28;20687;-79
2021/08/01 02:46:28;;;;;;;8.43;5.43;;;;;;;15.60;97.58;98315.97;5032879;28;20053;-78
2021/08/01 02:48:57;;;;;;;9.32;5.88;;;;;;;15.68;97.02;98318.38;5047987;28;20124;-78
2021/08/01 02:51:24;;;;;;;9.82;5.68;;;;;;;15.71;95.34;98317.88;5051699;28;20053;-78
2021/08/01 02:53:54;;;;;;;10.25;5.85;;;;;;;15.51;95.79;98305.38;5041958;28;20041;-79
2021/08/01 02:56:23;;;;;;;11.30;6.43;;;;;;;15.66;97.35;98307.66;5048821;28;20413;-78
2021/08/01 02:58:52;;;;;;;11.27;6.70;;;;;;;15.82;98.27;98308.88;5041179;28;20045;-78
2021/08/01 03:01:20;;;;;;;9.25;5.57;;;;;;;15.68;97.01;98307.41;5049830;28;20104;-78
2021/08/01 03:03:48;;;;;;;9.98;5.05;;;;;;;15.85;96.19;98308.38;5039634;28;20076;-78
2021/08/01 03:06:16;;;;;;;6.97;5.57;;;;;;;15.74;95.45;98290.00;5036383;28;20052;-78
2021/08/01 03:08:43;;;;;;;11.40;5.85;;;;;;;15.65;96.29;98302.41;5032336;28;20042;-78
2021/08/01 03:11:12;;;;;;;9.15;5.53;;;;;;;15.68;96.43;98307.41;5044104;28;20045;-78
2021/08/01 03:13:39;;;;;;;8.77;5.55;;;;;;;15.72;96.46;98319.56;5045098;28;20069;-78
2021/08/01 03:16:06;;;;;;;7.97;5.07;;;;;;;15.77;96.91;98318.84;5035198;28;20053;-78
2021/08/01 03:18:34;;;;;;;8.30;5.70;;;;;;;15.65;97.37;98319.66;5044984;28;20049;-78
2021/08/01 03:21:04;;;;;;;9.68;5.50;;;;;;;15.64;97.45;98320.75;5039454;28;20045;-78
2021/08/01 03:23:30;;;;;;;9.00;6.07;;;;;;;15.57;99.27;98309.91;5040952;28;20045;-78
2021/08/01 03:25:57;;;;;;;9.70;5.85;;;;;;;15.57;98.50;98314.56;5040239;28;20053;-78
2021/08/01 03:28:24;;;;;;;9.10;5.80;;;;;;;15.67;98.73;98331.25;5038087;28;20057;-78
2021/08/01 03:30:51;;;;;;;10.77;6.00;;;;;;;15.55;99.01;98313.94;5037962;28;20049;-78
2021/08/01 03:33:18;;;;;;;9.85;5.93;;;;;;;15.70;98.32;98333.50;5034075;28;20304;-78
2021/08/01 03:35:46;;;;;;;9.20;5.57;;;;;;;15.57;98.70;98326.34;5035320;28;20057;-78
2021/08/01 03:38:13;;;;;;;9.20;6.00;;;;;;;15.74;98.01;98334.66;5037254;28;20131;-78
2021/08/01 03:40:40;;;;;;;9.18;5.93;;;;;;;15.61;98.15;98318.50;5038418;28;20096;-78
2021/08/01 03:43:06;;;;;;;10.63;6.05;;;;;;;15.68;98.14;98330.16;5038962;28;20054;-78
2021/08/01 03:45:33;;;;;;;8.25;5.88;;;;;;;15.61;98.61;98312.16;5041952;28;20440;-78
2021/08/01 03:48:00;;;;;;;10.90;6.50;;;;;;;15.71;98.90;98335.16;5056250;28;20041;-78
2021/08/01 03:50:27;;;;;;;10.60;6.07;;;;;;;15.69;98.73;98344.69;5069487;28;20504;-78
2021/08/01 03:52:55;;;;;;;12.93;6.95;;;;;;;15.70;98.48;98338.97;5038630;28;20049;-78
2021/08/01 03:55:21;;;;;;;8.18;6.40;;;;;;;15.71;98.77;98335.16;5034851;28;20099;-78
2021/08/01 03:57:48;;;;;;;9.77;7.20;;;;;;;15.61;98.92;98323.13;5039651;28;20045;-78
2021/08/01 04:00:15;;;;;;;10.40;5.72;;;;;;;15.65;98.88;98341.59;5035540;28;20104;-78
2021/08/01 04:02:42;;;;;;;11.07;5.68;;;;;;;15.63;99.82;98357.44;5043825;28;20057;-79
2021/08/01 04:05:09;;;;;;;8.30;5.75;;;;;;;15.62;98.84;98347.53;5038927;28;20053;-78
2021/08/01 04:07:36;;;;;;;14.95;6.10;;;;;;;15.64;98.88;98353.63;5044892;28;20053;-78
2021/08/01 04:10:05;;;;;;;11.20;6.13;;;;;;;15.60;99.54;98344.22;5045231;28;20497;-78
2021/08/01 04:12:32;;;;;;;8.20;5.55;;;;;;;15.64;99.78;98356.38;5037818;28;20103;-78
2021/08/01 04:14:59;;;;;;;15.05;6.38;;;;;;;15.63;99.87;98345.66;5036041;28;20511;-78
2021/08/01 04:17:28;;;;;;;9.35;6.93;;;;;;;15.56;100.00;98345.75;5050266;28;20052;-78
2021/08/01 04:19:54;;;;;;;13.83;7.20;;;;;;;15.56;99.43;98348.50;5048492;28;20041;-78
2021/08/01 04:22:21;;;;;;;9.90;5.22;;;;;;;15.55;99.44;98344.06;5051866;28;20041;-78
2021/08/01 04:24:48;;;;;;;8.75;5.43;;;;;;;15.53;99.98;98349.78;5047508;28;20532;-78
2021/08/01 04:27:16;;;;;;;13.45;6.80;;;;;;;15.52;99.83;98350.88;5043058;28;20566;-78
2021/08/01 04:29:42;;;;;;;13.43;5.47;;;;;;;15.52;100.00;98355.50;5041256;28;20042;-78
2021/08/01 04:32:09;;;;;;;8.75;5.63;;;;;;;15.46;100.00;98353.72;5037555;28;20096;-78
2021/08/01 04:34:36;;;;;;;10.77;6.00;;;;;;;15.50;100.00;98363.13;5052754;28;20104;-78
2021/08/01 04:37:03;;;;;;;10.68;5.47;;;;;;;15.45;100.00;98363.03;5043711;28;20469;-78
2021/08/01 04:39:29;;;;;;;10.30;6.22;;;;;;;15.44;99.79;98366.81;5053763;28;20052;-78
2021/08/01 04:41:56;;;;;;;12.10;5.55;;;;;;;15.52;100.00;98370.06;5043944;28;20092;-78
2021/08/01 04:44:24;;;;;;;19.40;6.03;;;;;;;15.49;100.00;98369.69;5033374;28;20430;-77
2021/08/01 04:46:51;;;;;;;8.10;5.57;;;;;;;15.45;100.00;98372.06;5035032;28;20085;-78
2021/08/01 04:49:17;;;;;;;9.73;5.38;;;;;;;15.49;99.01;98377.91;5049846;28;20049;-78
2021/08/01 04:51:44;;;;;;;8.32;5.07;;;;;;;15.54;98.95;98378.88;5038429;28;20480;-78
2021/08/01 04:54:11;;;;;;;10.07;5.93;;;;;;;15.56;99.49;98375.88;5045069;28;20459;-78
2021/08/01 04:56:38;;;;;;;12.68;5.80;;;;;;;15.59;100.00;98372.66;5045792;28;20048;-77
2021/08/01 04:59:04;;;;;;;11.23;6.28;;;;;;;15.52;100.00;98372.78;5045078;28;20053;-77
2021/08/01 05:01:32;;;;;;;9.50;5.43;;;;;;;15.55;100.00;98369.59;5034747;28;20085;-77
2021/08/01 05:03:59;;;;;;;9.38;5.13;;;;;;;15.54;99.84;98380.78;5041484;28;20099;-77
2021/08/01 05:06:26;;;;;;;9.48;5.53;;;;;;;15.62;100.00;98372.19;5053399;28;20131;-77
2021/08/01 05:08:52;;;;;;;8.15;4.97;;;;;;;15.55;99.58;98374.22;5043784;28;20103;-78
2021/08/01 05:11:19;;;;;;;10.52;5.70;;;;;;;15.50;99.68;98365.88;5051235;28;20562;-78
2021/08/01 05:13:46;;;;;;;9.90;5.60;;;;;;;15.57;99.98;98363.88;5046533;28;20134;-78
2021/08/01 05:16:16;;;;;;;6.85;5.07;;;;;;;15.54;99.29;98350.66;5037275;28;20046;-78
2021/08/01 05:18:46;;;;;;;8.05;4.65;;;;;;;15.66;100.00;98358.88;5034134;28;20132;-78
2021/08/01 05:21:13;;;;;;;11.20;5.18;;;;;;;15.67;100.00;98355.03;5041495;28;20124;-78
2021/08/01 05:23:39;;;;;;;9.07;4.53;;;;;;;15.75;99.73;98358.28;5045239;28;20046;-78
2021/08/01 05:26:06;;;;;;;11.60;5.72;;;;;;;15.81;99.83;98356.53;5041818;28;20045;-77
2021/08/01 05:28:33;;;;;;;9.90;4.90;;;;;;;15.82;99.80;98352.72;5049500;28;20045;-77
2021/08/01 05:30:59;;;;;;;9.13;5.03;;;;;;;15.89;98.88;98341.63;5051873;28;20464;-78
2021/08/01 05:33:26;;;;;;;12.00;5.13;;;;;;;15.89;100.00;98328.72;5045108;28;20045;-78
2021/08/01 05:35:54;;;;;;;6.82;4.78;;;;;;;15.98;99.31;98353.06;5033463;28;20404;-77
2021/08/01 05:38:21;;;;;;;6.70;4.28;;;;;;;15.98;98.75;98355.78;5037769;28;20045;-78
2021/08/01 05:40:48;;;;;;;14.68;5.07;;;;;;;15.96;97.97;98349.69;5050551;28;20096;-80
2021/08/01 05:43:15;;;;;;;6.38;4.65;;;;;;;16.07;98.38;98362.56;5046392;28;20045;-78
2021/08/01 05:45:41;;;;;;;8.27;4.50;;;;;;;16.03;97.88;98348.53;5038366;28;20053;-78
2021/08/01 05:48:08;;;;;;;7.57;4.68;;;;;;;16.09;97.08;98347.56;5034175;28;20398;-78
2021/08/01 05:50:35;;;;;;;9.80;4.35;;;;;;;16.18;96.35;98352.66;5042631;28;20103;-78
2021/08/01 05:53:03;;;;;;;8.02;5.00;;;;;;;16.19;97.30;98354.34;5045373;28;20480;-78
2021/08/01 05:55:30;;;;;;;6.85;4.40;;;;;;;16.08;97.12;98347.81;5045115;28;20480;-78
2021/08/01 05:57:56;;;;;;;7.32;4.07;;;;;;;16.15;97.10;98356.72;5033994;28;20440;-78
2021/08/01 06:00:23;;;;;;;8.25;4.63;;;;;;;16.12;97.45;98342.66;5034957;28;20053;-79
2021/08/01 06:02:50;;;;;;;7.60;5.30;;;;;;;16.13;99.21;98358.88;5045413;28;20452;-79
2021/08/01 06:05:16;;;;;;;11.70;5.30;;;;;;;16.17;98.16;98362.81;5053781;28;20073;-79
2021/08/01 06:07:43;;;;;;;9.23;4.80;;;;;;;16.14;98.92;98365.19;5054091;28;20041;-79
2021/08/01 06:10:12;;;;;;;6.95;4.40;;;;;;;16.20;98.50;98365.06;5052580;28;20045;-79
2021/08/01 06:12:39;;;;;;;5.78;4.10;;;;;;;16.24;95.47;98368.16;5033124;28;20460;-78
2021/08/01 06:15:06;;;;;;;6.22;4.15;;;;;;;16.20;95.58;98359.56;5049852;28;20053;-79
2021/08/01 06:17:33;;;;;;;6.05;4.00;;;;;;;16.29;96.33;98368.28;5034877;28;20049;-79
2021/08/01 06:20:00;;;;;;;7.55;4.18;;;;;;;16.39;96.39;98367.63;5042265;28;20496;-79
2021/08/01 06:22:27;;;;;;;8.38;3.80;;;;;;;16.24;94.50;98370.88;5044923;28;20057;-78
2021/08/01 06:24:54;;;;;;;6.20;4.03;;;;;;;16.25;94.76;98373.38;5049145;28;20103;-78
2021/08/01 06:27:22;;;;;;;4.80;3.47;;;;;;;16.19;96.62;98377.09;5053351;28;20095;-79
2021/08/01 06:29:49;;;;;;;5.90;4.07;;;;;;;16.27;98.25;98381.38;5037692;28;20053;-79
2021/08/01 06:32:15;;;;;;;7.50;4.80;;;;;;;16.20;95.60;98372.44;5032530;28;20108;-78
2021/08/01 06:34:42;;;;;;;9.65;4.78;;;;;;;16.21;95.97;98369.47;5042507;28;20548;-78
2021/08/01 06:37:09;;;;;;;6.15;4.03;;;;;;;16.15;96.39;98372.34;5034074;28;20096;-79
2021/08/01 06:39:36;;;;;;;8.88;4.28;;;;;;;16.12;97.18;98381.88;5037666;28;20057;-78
2021/08/01 06:42:03;;;;;;;8.05;4.63;;;;;;;16.20;97.32;98386.16;5033532;28;20107;-78
2021/08/01 06:44:31;;;;;;;6.90;4.40;;;;;;;16.12;97.49;98387.34;5037211;28;20053;-79
2021/08/01 06:46:58;;;;;;;8.45;4.45;;;;;;;16.05;98.49;98389.41;5041284;28;20054;-79
2021/08/01 06:49:24;;;;;;;7.05;5.13;;;;;;;16.13;99.82;98401.91;5040875;28;20044;-79
2021/08/01 06:51:51;;;;;;;14.30;4.57;;;;;;;16.02;100.00;98396.19;5045701;28;20053;-79
2021/08/01 06:54:18;;;;;;;7.55;5.03;;;;;;;16.13;99.79;98396.44;5045298;28;20041;-79
2021/08/01 06:56:44;;;;;;;7.25;4.78;;;;;;;16.10;100.00;98397.72;5041075;28;20552;-79
2021/08/01 07:00:10;;;;;;;6.07;4.40;;;;;;;15.87;99.72;98393.94;5033001;28;20053;-79
2021/08/01 07:02:38;;;;;;;8.73;6.03;;;;;;;16.00;100.00;98409.28;5028509;28;20049;-79
2021/08/01 07:05:06;;;;;;;6.45;4.20;;;;;;;16.07;99.34;98403.69;5039319;28;20049;-79
2021/08/01 07:07:32;;;;;;;7.95;4.72;;;;;;;16.10;99.47;98404.03;5047940;28;20114;-79
2021/08/01 07:09:59;;;;;;;6.68;4.43;;;;;;;16.09;98.33;98401.53;5041725;28;20048;-78
2021/08/01 07:12:26;;;;;;;6.75;4.57;;;;;;;16.16;97.69;98415.16;5034287;28;20057;-79
2021/08/01 07:14:53;;;;;;;10.23;4.13;;;;;;;16.22;97.98;98394.97;5038628;28;20496;-79
2021/08/01 07:17:21;;;;;;;4.80;3.92;;;;;;;16.25;97.30;98406.28;5043466;28;20081;-78
2021/08/01 07:19:50;;;;;;;15.00;6.13;;;;;;;16.29;96.49;98417.63;5045233;28;20049;-78
2021/08/01 07:22:17;;;;;;;6.57;4.07;;;;;;;16.36;95.68;98418.31;5044239;28;20052;-78
2021/08/01 07:24:44;;;;;;;8.25;4.00;;;;;;;16.37;96.17;98416.44;5042257;28;20603;-79
2021/08/01 07:27:10;;;;;;;9.52;4.50;;;;;;;16.42;95.39;98409.16;5041193;28;20477;-79
2021/08/01 07:29:37;;;;;;;6.40;3.42;;;;;;;16.48;93.15;98423.78;5052610;28;20104;-79
2021/08/01 07:32:04;;;;;;;8.00;3.60;;;;;;;16.43;94.09;98413.53;5037646;28;20088;-79
2021/08/01 07:34:33;;;;;;;7.53;3.65;;;;;;;16.41;94.06;98414.84;5039859;28;20063;-79
2021/08/01 07:37:01;;;;;;;6.70;3.83;;;;;;;16.41;94.95;98421.19;5039982;28;20490;-78
2021/08/01 07:39:28;;;;;;;5.55;3.83;;;;;;;16.56;95.23;98414.34;5042034;28;20089;-79
2021/08/01 07:41:55;;;;;;;6.43;3.65;;;;;;;16.50;94.08;98399.72;5041581;28;20485;-79
2021/08/01 07:44:23;;;;;;;8.63;4.22;;;;;;;16.59;95.68;98416.59;5047948;28;20455;-79
2021/08/01 07:46:50;;;;;;;7.30;3.40;;;;;;;16.46;94.04;98404.81;5042673;28;20049;-79
2021/08/01 07:49:17;;;;;;;6.72;3.65;;;;;;;16.68;94.34;98423.41;5039323;28;20483;-79
2021/08/01 07:51:44;;;;;;;8.98;3.67;;;;;;;16.68;94.50;98430.78;5046268;28;20041;-78
2021/08/01 07:54:12;;;;;;;6.32;3.53;;;;;;;16.66;92.44;98432.94;5047826;28;20296;-79
2021/08/01 07:56:38;;;;;;;7.05;3.70;;;;;;;16.71;91.59;98424.81;5050003;28;20049;-79
2021/08/01 07:59:05;;;;;;;6.43;3.70;;;;;;;16.94;92.10;98434.94;5051232;28;20444;-79
2021/08/01 08:01:32;;;;;;;9.77;3.70;;;;;;;16.89;93.72;98432.06;5043047;28;20079;-79
2021/08/01 08:03:58;;;;;;;9.10;3.72;;;;;;;16.90;90.70;98431.81;5044317;28;20077;-79
2021/08/01 08:06:25;;;;;;;8.05;4.60;;;;;;;16.94;92.33;98421.22;5048623;28;20107;-79
2021/08/01 08:08:52;;;;;;;7.80;3.38;;;;;;;17.05;89.33;98435.97;5043149;28;20111;-79
2021/08/01 08:11:20;;;;;;;9.02;3.97;;;;;;;17.04;91.48;98429.66;5045494;28;20570;-79
2021/08/01 08:13:47;;;;;;;5.50;4.07;;;;;;;17.17;91.36;98434.81;5040269;28;20456;-79
2021/08/01 08:16:13;;;;;;;6.85;3.97;;;;;;;17.22;91.57;98438.75;5048130;28;20049;-79
2021/08/01 08:18:40;;;;;;;8.77;4.65;;;;;;;17.24;93.75;98423.69;5035392;28;20398;-79
2021/08/01 08:21:07;;;;;;;7.68;4.28;;;;;;;17.46;91.32;98432.06;5037994;28;20108;-79
2021/08/01 08:23:34;;;;;;;8.05;4.32;;;;;;;17.44;90.76;98425.97;5034560;28;20053;-79
2021/08/01 08:26:00;;;;;;;8.50;4.32;;;;;;;17.40;92.62;98429.47;5034394;28;20489;-80
2021/08/01 08:28:28;;;;;;;8.27;4.70;;;;;;;17.66;92.08;98428.81;5042773;28;20107;-80
2021/08/01 08:30:55;;;;;;;5.60;3.92;;;;;;;17.75;90.36;98426.50;5034175;28;20477;-80
2021/08/01 08:33:22;;;;;;;9.25;4.25;;;;;;;17.78;89.37;98422.41;5035996;28;20134;-81
2021/08/01 08:35:49;;;;;;;5.22;3.63;;;;;;;17.71;88.65;98422.56;5042582;28;20072;-81
2021/08/01 08:38:16;;;;;;;7.82;4.30;;;;;;;17.85;88.94;98421.19;5045021;28;20049;-80
2021/08/01 08:40:42;;;;;;;6.65;3.50;;;;;;;17.86;86.91;98427.50;5039690;28;20100;-80
2021/08/01 08:43:10;;;;;;;7.30;3.60;;;;;;;17.83;87.90;98436.25;5043828;28;20103;-81
2021/08/01 08:45:44;;;;;;;7.32;3.85;;;;;;;17.87;87.69;98429.16;5034386;28;20045;-81
2021/08/01 08:48:13;;;;;;;15.00;3.70;;;;;;;17.74;88.73;98422.09;5040469;28;20116;-81
2021/08/01 08:50:46;;;;;;;5.28;3.80;;;;;;;17.87;87.62;98443.75;5034505;28;20053;-81
2021/08/01 08:53:14;;;;;;;7.68;3.25;;;;;;;17.82;86.86;98443.63;5035110;28;20050;-81
2021/08/01 08:55:41;;;;;;;7.20;3.17;;;;;;;17.79;86.28;98446.88;5047509;28;20041;-81
2021/08/01 08:58:08;;;;;;;4.78;3.47;;;;;;;17.72;87.45;98442.66;5035929;28;20056;-80
2021/08/01 09:00:35;;;;;;;9.70;3.72;;;;;;;17.66;88.16;98430.75;5040974;28;20473;-80
2021/08/01 09:03:04;;;;;;;5.47;3.22;;;;;;;17.75;86.91;98431.16;5049184;28;20129;-80
2021/08/01 09:05:31;;;;;;;5.05;3.33;;;;;;;17.63;87.59;98432.06;5034593;28;20189;-81
2021/08/01 09:07:58;;;;;;;6.28;3.28;;;;;;;17.49;87.52;98441.72;5033650;28;20047;-81
2021/08/01 09:10:25;;;;;;;6.13;3.78;;;;;;;17.60;87.91;98448.22;5043094;28;20099;-81
2021/08/01 09:12:54;;;;;;;13.70;5.40;;;;;;;17.59;89.43;98457.56;5037554;28;20056;-81
2021/08/01 09:15:23;;;;;;;7.15;3.83;;;;;;;17.55;88.00;98446.22;5048954;28;20083;-80
2021/08/01 09:17:53;;;;;;;4.55;3.33;;;;;;;17.37;90.29;98455.50;5033658;28;20048;-80
2021/08/01 09:20:23;;;;;;;6.43;4.05;;;;;;;17.46;89.84;98456.78;5038329;28;20045;-80
2021/08/01 09:23:11;;;;;;;7.85;4.28;;;;;;;17.42;91.26;98465.75;5039168;28;20048;-80
2021/08/01 09:26:06;;;;;;;13.77;4.00;;;;;;;17.41;92.22;98442.94;5033949;28;20045;-81
2021/08/01 09:28:33;;;;;;;9.93;4.30;;;;;;;17.72;91.39;98462.75;5033417;28;20049;-80
2021/08/01 09:31:02;;;;;;;10.98;4.07;;;;;;;17.71;90.84;98454.75;5041590;28;20053;-80
2021/08/01 09:33:33;;;;;;;6.63;3.70;;;;;;;17.82;88.10;98456.56;5042406;28;20494;-81
2021/08/01 09:36:13;;;;;;;11.35;4.55;;;;;;;17.85;90.69;98451.41;5036646;28;20049;-80
2021/08/01 09:38:49;;;;;;;7.20;4.03;;;;;;;17.91;91.41;98468.03;5040046;28;20481;-80
2021/08/01 09:41:18;;;;;;;6.75;3.83;;;;;;;17.73;90.08;98447.88;5033483;28;20643;-80
2021/08/01 09:43:46;;;;;;;9.48;3.80;;;;;;;17.86;89.61;98468.75;5045149;28;20487;-80
2021/08/01 09:46:17;;;;;;;9.85;4.03;;;;;;;17.65;87.17;98464.81;5052171;28;20056;-81
2021/08/01 09:48:44;;;;;;;7.43;3.50;;;;;;;17.44;87.76;98449.88;5052164;28;20057;-80
2021/08/01 09:51:17;;;;;;;7.25;3.60;;;;;;;17.30;88.39;98465.84;5032872;28;20045;-81
2021/08/01 09:53:44;;;;;;;11.98;4.22;;;;;;;17.57;89.82;98471.53;5037728;28;20067;-80
2021/08/01 09:56:19;;;;;;;5.55;3.05;;;;;;;17.42;88.51;98458.38;5036961;28;20041;-81
2021/08/01 09:58:47;;;;;;;9.23;3.75;;;;;;;17.51;89.19;98465.13;5041725;28;20041;-81
2021/08/01 10:01:15;;;;;;;8.35;3.60;;;;;;;17.67;87.37;98468.13;5040763;28;20286;-81
2021/08/01 10:03:45;;;;;;;5.65;3.50;;;;;;;17.90;86.70;98461.69;5040576;28;20038;-81
2021/08/01 10:06:17;;;;;;;8.10;3.83;;;;;;;17.81;85.79;98441.13;5034428;28;20057;-81
2021/08/01 10:08:45;;;;;;;7.63;3.40;;;;;;;18.14;83.86;98465.09;5032057;28;20136;-81
2021/08/01 10:11:16;;;;;;;8.55;3.30;;;;;;;18.30;85.28;98462.56;5033781;28;20061;-81
2021/08/01 10:13:45;;;;;;;12.07;4.10;;;;;;;18.44;83.34;98455.63;5037634;28;20190;-81
2021/08/01 10:16:12;;;;;;;5.18;3.70;;;;;;;18.44;82.45;98457.53;5044374;28;20554;-81
2021/08/01 10:18:40;;;;;;;11.50;4.55;;;;;;;18.49;82.01;98465.88;5038710;28;20045;-81
2021/08/01 10:21:08;;;;;;;8.13;3.53;;;;;;;18.64;81.97;98445.97;5037408;28;20049;-81
2021/08/01 10:23:40;;;;;;;6.15;3.92;;;;;;;18.80;80.41;98453.34;5040739;28;20046;-80
2021/08/01 10:26:08;;;;;;;9.82;4.30;;;;;;;18.94;80.23;98442.81;5038325;28;20050;-80
2021/08/01 10:28:41;;;;;;;4.85;2.78;;;;;;;18.93;78.07;98449.41;5032321;28;20050;-81
2021/08/01 10:31:12;;;;;;;6.75;3.00;;;;;;;18.97;77.38;98461.59;5032390;28;20108;-80
2021/08/01 10:33:46;;;;;;;8.25;3.90;;;;;;;19.06;80.91;98454.53;5034616;28;20041;-80
2021/08/01 10:36:17;;;;;;;7.97;3.95;;;;;;;19.04;82.46;98451.19;5039204;28;20091;-80
2021/08/01 10:38:51;;;;;;;5.35;3.15;;;;;;;19.19;80.71;98447.75;5051120;28;20056;-80
2021/08/01 10:41:20;;;;;;;7.50;4.20;;;;;;;19.17;78.84;98449.13;5052491;28;20052;-80
2021/08/01 10:43:53;;;;;;;9.30;3.70;;;;;;;19.51;80.40;98448.91;5043516;28;20416;-80
2021/08/01 10:46:20;;;;;;;7.25;3.22;;;;;;;19.49;76.61;98434.56;5042846;28;20045;-80
2021/08/01 10:48:48;;;;;;;7.75;3.97;;;;;;;19.68;78.75;98426.75;5046458;28;20056;-80
2021/08/01 10:51:15;;;;;;;3.08;2.75;;;;;;;19.73;76.79;98429.56;5032789;28;20136;-80
2021/08/01 10:53:42;;;;;;;8.18;3.47;;;;;;;19.80;77.67;98422.75;5040702;28;20049;-80
2021/08/01 10:56:35;;;;;;;7.07;2.70;;;;;;;20.12;75.51;98440.38;5037448;28;20112;-80
2021/08/01 10:59:02;;;;;;;8.20;3.30;;;;;;;20.18;74.33;98442.06;5040705;28;20065;-80
2021/08/01 11:01:29;;;;;;;7.10;3.50;;;;;;;19.91;75.40;98436.63;5038254;28;20049;-79
2021/08/01 11:04:32;;;;;;;6.50;3.70;;;;;;;19.91;75.92;98440.22;5032008;28;20057;-79
2021/08/01 11:06:59;;;;;;;5.00;2.90;;;;;;;19.69;74.92;98434.78;5016202;28;20107;-79
2021/08/01 11:09:25;;;;;;;6.82;3.63;;;;;;;19.89;75.33;98433.31;5049209;28;20086;-80
2021/08/01 11:12:32;;;;;;;7.35;3.05;;;;;;;19.95;72.65;98432.25;5043927;28;20107;-80
2021/08/01 11:15:01;;;;;;;5.72;2.72;;;;;;;20.22;74.61;98432.16;5024938;28;20132;-79
2021/08/01 11:18:10;;;;;;;9.93;2.55;;;;;;;20.25;73.91;98439.06;5038037;28;20503;-79
2021/08/01 11:20:54;;;;;;;8.90;3.63;;;;;;;20.46;74.75;98426.22;5016948;28;20045;-79
2021/08/01 11:23:21;;;;;;;6.70;2.92;;;;;;;20.34;73.60;98421.75;5016033;28;20402;-79
2021/08/01 11:26:11;;;;;;;7.65;2.70;;;;;;;20.37;71.61;98428.69;5038758;28;20127;-79
2021/08/01 11:28:41;;;;;;;7.03;2.72;;;;;;;20.59;69.52;98411.94;5039845;28;20316;-79
2021/08/01 11:31:24;;;;;;;5.20;2.63;;;;;;;20.61;69.56;98429.06;5034166;28;20053;-79
2021/08/01 11:33:53;;;;;;;5.95;2.53;;;;;;;20.45;68.21;98417.13;5035846;28;20045;-79
2021/08/01 11:36:21;;;;;;;4.22;2.85;;;;;;;20.70;70.60;98418.38;5031346;28;20172;-79
2021/08/01 11:39:04;;;;;;;10.93;3.92;;;;;;;21.00;72.24;98422.34;5039157;28;20112;-79
2021/08/01 11:41:50;;;;;;;7.65;2.83;;;;;;;20.85;73.60;98428.63;5040061;28;20566;-79